createdAt,value
2023-05-07T00:02:47.572Z,100.00
2023-05-07T00:07:53.596Z,100.00
2023-05-07T00:12:56.597Z,100.00
2023-05-07T00:18:00.530Z,100.00
2023-05-07T00:23:04.851Z,100.00
2023-05-07T00:28:10.945Z,100.00
2023-05-07T00:33:13.815Z,100.00
2023-05-07T00:38:18.189Z,100.00
2023-05-07T00:43:21.616Z,100.00
2023-05-07T00:48:25.373Z,100.00
2023-05-07T00:53:30.250Z,100.00
2023-05-07T00:58:33.137Z,100.00
2023-05-07T01:03:36.202Z,100.00
2023-05-07T01:08:41.899Z,100.00
2023-05-07T01:13:45.913Z,100.00
2023-05-07T01:18:50.054Z,100.00
2023-05-07T01:23:55.757Z,100.00
2023-05-07T01:28:59.476Z,100.00
2023-05-07T01:34:04.151Z,100.00
2023-05-07T01:39:09.448Z,100.00
2023-05-07T01:44:14.615Z,100.00
2023-05-07T01:49:18.410Z,100.00
2023-05-07T01:54:28.645Z,100.00
2023-05-07T01:59:32.646Z,100.00
2023-05-07T02:04:36.161Z,100.00
2023-05-07T02:09:40.633Z,100.00
2023-05-07T02:14:44.220Z,100.00
2023-05-07T02:19:48.183Z,100.00
2023-05-07T02:24:52.554Z,100.00
2023-05-07T02:29:55.749Z,100.00
2023-05-07T02:34:58.838Z,100.00
2023-05-07T02:40:05.078Z,100.00
2023-05-07T02:45:09.269Z,100.00
2023-05-07T02:50:13.513Z,100.00
2023-05-07T02:55:18.253Z,100.00
2023-05-07T03:00:22.560Z,100.00
2023-05-07T03:05:32.928Z,100.00
2023-05-07T03:10:37.611Z,100.00
2023-05-07T03:15:40.746Z,100.00
2023-05-07T03:20:43.805Z,100.00
2023-05-07T03:25:48.313Z,100.00
2023-05-07T03:30:51.667Z,100.00
2023-05-07T03:35:54.581Z,100.00
2023-05-07T03:41:01.920Z,100.00
2023-05-07T03:46:05.454Z,100.00
2023-05-07T03:51:08.646Z,100.00
2023-05-07T03:56:13.239Z,99.67
2023-05-07T04:01:17.821Z,100.00
2023-05-07T04:06:21.064Z,99.74
2023-05-07T04:11:27.229Z,100.00
2023-05-07T04:16:30.961Z,100.00
2023-05-07T04:21:34.734Z,100.00
2023-05-07T04:26:39.112Z,100.00
2023-05-07T04:31:45.283Z,100.00
2023-05-07T04:36:49.140Z,100.00
2023-05-07T04:41:53.704Z,100.00
2023-05-07T04:46:57.051Z,100.00
2023-05-07T04:52:00.116Z,100.00
2023-05-07T04:57:05.836Z,100.00
2023-05-07T05:02:08.926Z,100.00
2023-05-07T05:07:12.110Z,100.00
2023-05-07T05:12:16.567Z,100.00
2023-05-07T05:17:19.722Z,100.00
2023-05-07T05:22:23.236Z,100.00
2023-05-07T05:27:27.850Z,100.00
2023-05-07T05:32:31.163Z,100.00
2023-05-07T05:37:34.484Z,99.39
2023-05-07T05:42:41.392Z,99.97
2023-05-07T05:47:45.641Z,100.00
2023-05-07T05:52:48.576Z,100.00
2023-05-07T05:57:54.327Z,100.00
2023-05-07T06:02:57.986Z,100.00
2023-05-07T06:08:02.035Z,100.00
2023-05-07T06:13:10.566Z,100.00
2023-05-07T06:18:14.351Z,99.30
2023-05-07T06:23:18.261Z,98.76
2023-05-07T06:28:22.838Z,97.94
2023-05-07T06:33:26.168Z,98.54
2023-05-07T06:38:29.099Z,98.95
2023-05-07T06:43:33.717Z,99.85
2023-05-07T06:49:09.229Z,96.35
2023-05-07T06:54:12.323Z,96.00
2023-05-07T06:59:18.019Z,93.85
2023-05-07T07:04:20.935Z,95.93
2023-05-07T07:09:30.397Z,93.81
2023-05-07T07:14:35.358Z,93.27
2023-05-07T07:19:39.655Z,94.08
2023-05-07T07:24:42.559Z,92.19
2023-05-07T07:29:49.258Z,91.67
2023-05-07T07:34:52.242Z,92.68
2023-05-07T07:39:55.213Z,92.14
2023-05-07T07:45:00.368Z,94.23
2023-05-07T07:50:08.313Z,93.76
2023-05-07T07:55:11.749Z,93.44
2023-05-07T08:00:18.246Z,92.50
2023-05-07T08:05:21.191Z,92.59
2023-05-07T08:10:25.716Z,92.15
2023-05-07T08:15:36.520Z,89.60
2023-05-07T08:20:40.620Z,89.16
2023-05-07T08:25:46.732Z,90.51
2023-05-07T08:30:51.850Z,91.81
2023-05-07T08:35:55.471Z,89.39
2023-05-07T08:40:58.715Z,89.41
2023-05-07T08:46:04.577Z,89.45
2023-05-07T08:51:15.607Z,89.46
2023-05-07T08:56:20.444Z,87.66
2023-05-07T09:01:28.210Z,88.40
2023-05-07T09:06:32.293Z,87.13
2023-05-07T09:11:35.448Z,85.00
2023-05-07T09:16:40.714Z,84.70
2023-05-07T09:21:43.816Z,85.37
2023-05-07T09:26:48.740Z,85.58
2023-05-07T09:31:53.433Z,87.03
2023-05-07T09:36:57.670Z,88.16
2023-05-07T09:42:02.302Z,86.68
2023-05-07T09:47:13.738Z,84.88
2023-05-07T09:52:22.515Z,85.69
2023-05-07T09:57:31.175Z,82.87
2023-05-07T10:02:47.360Z,81.53
2023-05-07T10:07:51.354Z,80.97
2023-05-07T10:12:55.193Z,79.87
2023-05-07T10:18:08.595Z,78.00
2023-05-07T10:23:17.055Z,77.62
2023-05-07T10:28:26.304Z,78.50
2023-05-07T10:33:33.456Z,77.55
2023-05-07T10:38:39.227Z,79.08
2023-05-07T10:43:43.967Z,77.77
2023-05-07T10:49:14.125Z,79.25
2023-05-07T10:54:30.968Z,81.97
2023-05-07T10:59:44.467Z,79.00
2023-05-07T11:05:22.888Z,78.20
2023-05-07T11:10:50.876Z,76.70
2023-05-07T11:16:03.679Z,79.05
2023-05-07T11:21:15.602Z,79.81
2023-05-07T11:26:24.380Z,79.00
2023-05-07T11:31:29.690Z,79.62
2023-05-07T11:36:36.422Z,77.25
2023-05-07T11:41:43.867Z,77.57
2023-05-07T11:46:47.272Z,78.69
2023-05-07T11:51:51.780Z,72.80
2023-05-07T11:56:54.671Z,71.14
2023-05-07T12:02:00.154Z,73.17
2023-05-07T12:07:04.538Z,72.90
2023-05-07T12:12:08.120Z,71.61
2023-05-07T12:17:12.259Z,71.76
2023-05-07T12:22:16.864Z,74.50
2023-05-07T12:27:19.788Z,74.20
2023-05-07T12:32:24.077Z,71.91
2023-05-07T12:37:31.124Z,73.02
2023-05-07T12:42:37.622Z,75.20
2023-05-07T12:47:40.657Z,75.36
2023-05-07T12:52:45.612Z,77.15
2023-05-07T12:57:51.647Z,76.34
2023-05-07T13:02:56.444Z,74.29
2023-05-07T13:08:00.912Z,73.47
2023-05-07T13:13:03.901Z,70.81
2023-05-07T13:18:07.286Z,72.50
2023-05-07T13:23:11.665Z,74.25
2023-05-07T13:28:14.577Z,72.77
2023-05-07T13:33:17.941Z,72.96
2023-05-07T13:38:23.226Z,73.63
2023-05-07T13:43:27.820Z,74.10
2023-05-07T13:48:30.761Z,74.00
2023-05-07T13:53:34.992Z,72.37
2023-05-07T13:58:48.178Z,73.79
2023-05-07T14:04:00.619Z,72.96
2023-05-07T14:09:05.258Z,73.30
2023-05-07T14:14:08.184Z,73.04
2023-05-07T14:19:11.080Z,74.06
2023-05-07T14:24:21.475Z,73.84
2023-05-07T14:29:33.951Z,73.44
2023-05-07T14:34:36.966Z,71.38
2023-05-07T14:39:41.688Z,71.71
2023-05-07T14:44:46.250Z,72.17
2023-05-07T14:49:49.188Z,73.23
2023-05-07T14:54:53.590Z,71.04
2023-05-07T14:59:56.491Z,72.98
2023-05-07T15:04:59.367Z,70.93
2023-05-07T15:10:03.692Z,73.59
2023-05-07T15:15:07.904Z,72.36
2023-05-07T15:20:11.413Z,75.55
2023-05-07T15:25:16.099Z,75.85
2023-05-07T15:30:21.125Z,73.78
2023-05-07T15:35:24.432Z,75.20
2023-05-07T15:40:29.408Z,74.03
2023-05-07T15:45:32.510Z,75.23
2023-05-07T15:50:35.476Z,75.96
2023-05-07T15:55:40.893Z,74.98
2023-05-07T16:00:43.858Z,74.25
2023-05-07T16:05:47.234Z,74.66
2023-05-07T16:10:51.715Z,78.02
2023-05-07T16:15:57.497Z,77.02
2023-05-07T16:21:01.399Z,77.24
2023-05-07T16:26:06.111Z,75.74
2023-05-07T16:31:09.518Z,76.30
2023-05-07T16:36:12.735Z,77.36
2023-05-07T16:41:18.112Z,77.90
2023-05-07T16:46:21.104Z,77.27
2023-05-07T16:51:24.659Z,76.79
2023-05-07T16:56:28.950Z,77.28
2023-05-07T17:01:32.697Z,77.11
2023-05-07T17:06:36.444Z,77.42
2023-05-07T17:11:40.778Z,77.40
2023-05-07T17:16:43.758Z,78.03
2023-05-07T17:21:46.734Z,77.69
2023-05-07T17:26:51.029Z,77.04
2023-05-07T17:31:54.029Z,79.50
2023-05-07T17:36:57.552Z,80.04
2023-05-07T17:42:01.929Z,79.95
2023-05-07T17:47:04.987Z,79.94
2023-05-07T17:52:08.216Z,80.11
2023-05-07T17:57:12.534Z,80.26
2023-05-07T18:02:15.504Z,80.56
2023-05-07T18:07:18.469Z,80.92
2023-05-07T18:12:23.564Z,81.51
2023-05-07T18:17:28.048Z,80.59
2023-05-07T18:22:31.077Z,80.48
2023-05-07T18:27:35.426Z,80.89
2023-05-07T18:32:38.352Z,79.93
2023-05-07T18:37:41.370Z,81.19
2023-05-07T18:42:45.603Z,81.28
2023-05-07T18:47:48.617Z,80.93
2023-05-07T18:52:51.599Z,81.50
2023-05-07T18:57:55.996Z,81.57
2023-05-07T19:02:58.994Z,82.08
2023-05-07T19:08:01.958Z,83.18
2023-05-07T19:13:06.381Z,83.39
2023-05-07T19:18:09.370Z,83.40
2023-05-07T19:23:12.340Z,83.37
2023-05-07T19:28:17.211Z,84.69
2023-05-07T19:33:20.387Z,84.87
2023-05-07T19:38:23.365Z,85.24
2023-05-07T19:43:27.657Z,85.29
2023-05-07T19:48:30.608Z,84.63
2023-05-07T19:53:33.604Z,85.68
2023-05-07T19:58:38.228Z,86.76
2023-05-07T20:03:41.366Z,85.21
2023-05-07T20:08:44.915Z,86.65
2023-05-07T20:13:49.193Z,86.23
2023-05-07T20:18:52.068Z,86.20
2023-05-07T20:23:54.981Z,87.05
2023-05-07T20:28:59.192Z,88.50
2023-05-07T20:34:02.189Z,87.74
2023-05-07T20:39:05.640Z,85.70
2023-05-07T20:44:10.355Z,86.32
2023-05-07T20:49:13.913Z,85.93
2023-05-07T20:54:16.829Z,85.66
2023-05-07T20:59:21.096Z,85.66
2023-05-07T21:04:24.278Z,86.56
2023-05-07T21:09:27.638Z,86.87
2023-05-07T21:14:33.360Z,87.42
2023-05-07T21:19:36.224Z,87.90
2023-05-07T21:24:41.266Z,88.29
2023-05-07T21:29:46.102Z,86.75
2023-05-07T21:34:48.959Z,87.79
2023-05-07T21:39:51.858Z,87.41
2023-05-07T21:44:56.090Z,86.83
2023-05-07T21:49:59.035Z,86.62
2023-05-07T21:55:01.964Z,86.06
2023-05-07T22:00:07.674Z,85.45
2023-05-07T22:05:11.027Z,85.82
2023-05-07T22:10:14.190Z,85.64
2023-05-07T22:15:18.939Z,86.25
2023-05-07T22:20:21.874Z,87.05
2023-05-07T22:25:26.192Z,85.11
2023-05-07T22:30:30.508Z,86.38
2023-05-07T22:35:33.475Z,86.21
2023-05-07T22:40:36.333Z,85.09
2023-05-07T22:45:40.646Z,85.39
2023-05-07T22:50:43.550Z,85.04
2023-05-07T22:55:46.475Z,85.28
2023-05-07T23:00:50.774Z,85.83
2023-05-07T23:05:53.840Z,85.91
2023-05-07T23:10:56.766Z,85.96
2023-05-07T23:16:01.051Z,85.28
2023-05-07T23:21:04.045Z,84.99
2023-05-07T23:26:06.958Z,86.27
2023-05-07T23:31:12.725Z,86.05
2023-05-07T23:36:15.713Z,87.19
2023-05-07T23:41:18.631Z,87.47
2023-05-07T23:46:23.096Z,86.41
2023-05-07T23:51:26.050Z,87.36
2023-05-07T23:56:29.010Z,88.01
